Data for 04/23/2005

Time Sea-Level Adjusted Pressure Absolute Pressure Temperature Relative Humidity Dew Point   
(mb) (inHg) (mb) (inHg) (C) (F) (%) (C) (F)
00:05 1021 30.15 850 25.1 5.3 41.6 79 1.9 35.4
00:10 1021 30.15 850 25.1 5.2 41.4 79 1.8 35.3
00:15 1021 30.15 850 25.1 5.3 41.6 78 1.8 35.3
00:20 1021 30.15 850 25.1 5.3 41.5 79 1.9 35.4
00:25 1021 30.15 850 25.1 5.2 41.4 79 1.9 35.4
00:30 1021 30.15 850 25.1 5.4 41.6 78 1.9 35.4
00:35 1021 30.15 850 25.1 5.5 41.9 78 2 35.6
00:40 1021 30.15 850 25.1 5.5 42 78 2 35.6
00:45 1021 30.15 850 25.1 5.6 42.1 78 2 35.6
00:50 1021 30.15 850 25.1 5.6 42 78 2 35.6
00:55 1020 30.12 850 25.1 5.4 41.7 78 2 35.5
01:00 1021 30.15 850 25.1 5.5 41.9 78 2 35.5
01:05 1021 30.15 850 25.1 5.5 41.9 78 2 35.6
01:10 1020 30.12 850 25.1 5.5 42 78 2 35.6
01:15 1021 30.15 850 25.1 5.5 42 77 1.9 35.4
01:20 1021 30.15 850 25.1 5.5 42 78 2 35.5
01:25 1020 30.12 850 25.1 5.5 42 78 2 35.6
01:30 1020 30.12 850 25.1 5.6 42.1 78 2 35.7
01:35 1020 30.12 850 25.1 5.6 42.1 78 2 35.6
01:40 1020 30.12 850 25.1 5.6 42.1 78 2 35.6
01:45 1020 30.12 850 25.1 5.6 42.1 78 2.1 35.8
01:50 1020 30.12 850 25.1 5.5 42 78 2.1 35.7
01:55 1020 30.12 850 25.1 5.5 42 78 2.1 35.8
02:00 1020 30.12 850 25.1 5.6 42.1 78 2.1 35.8
02:05 1020 30.12 850 25.1 5.6 42.1 78 2.1 35.8
02:10 1020 30.12 849 25.07 5.5 41.9 78 2.1 35.7
02:15 1020 30.12 850 25.1 5.5 41.9 79 2.1 35.7
02:20 1020 30.12 849 25.07 5.4 41.8 79 2.1 35.8
02:25 1020 30.12 849 25.07 5.4 41.8 79 2.1 35.7
02:30 1020 30.12 849 25.07 5.4 41.7 79 2.1 35.7
02:35 1020 30.12 849 25.07 5.4 41.6 79 2 35.7
02:40 1020 30.12 849 25.07 5.4 41.6 79 2.1 35.7
02:45 1020 30.12 849 25.07 5.2 41.3 80 2 35.6
02:50 1020 30.12 849 25.07 5.1 41.3 80 1.9 35.5
02:55 1020 30.12 849 25.07 5 41.1 80 1.9 35.5
03:00 1020 30.12 849 25.07 5.1 41.1 80 1.8 35.3
03:05 1020 30.12 849 25.07 5 40.9 79 1.7 35.1
03:10 1020 30.12 849 25.07 4.9 40.7 80 1.7 35
03:15 1020 30.12 849 25.07 4.9 40.8 79 1.6 34.9
03:20 1020 30.12 849 25.07 4.8 40.6 80 1.6 34.9
03:25 1020 30.12 849 25.07 4.7 40.5 81 1.7 35
03:30 1020 30.12 849 25.07 4.6 40.2 81 1.6 34.8
03:35 1020 30.12 849 25.07 4.4 40 81 1.5 34.7
03:40 1020 30.12 849 25.07 4.5 40.1 81 1.5 34.7
03:45 1020 30.12 849 25.07 4.6 40.3 81 1.6 34.8
03:50 1020 30.12 849 25.07 4.7 40.4 81 1.7 35
03:55 1020 30.12 849 25.07 5 40.9 80 1.8 35.3
04:00 1020 30.12 849 25.07 5.2 41.3 79 1.8 35.3
04:05 1020 30.12 849 25.07 5 41 79 1.7 35.1
04:10 1019 30.09 849 25.07 5 41 79 1.7 35.1
04:15 1019 30.09 849 25.07 4.9 40.9 79 1.6 34.9
04:20 1019 30.09 849 25.07 5 40.9 79 1.7 35
04:25 1019 30.09 849 25.07 5.1 41.2 78 1.7 35
04:30 1019 30.09 849 25.07 5.2 41.3 78 1.7 35
04:35 1019 30.09 849 25.07 4.9 40.8 79 1.6 34.8
04:40 1019 30.09 849 25.07 4.6 40.4 80 1.6 34.8
04:45 1020 30.12 849 25.07 4.4 39.9 81 1.4 34.5
04:50 1020 30.12 849 25.07 4.3 39.8 81 1.4 34.5
04:55 1019 30.09 849 25.07 4.3 39.7 81 1.3 34.3
05:00 1019 30.09 849 25.07 4.3 39.8 81 1.3 34.4
05:05 1019 30.09 849 25.07 4.3 39.7 81 1.3 34.3
05:10 1019 30.09 849 25.07 4.2 39.6 81 1.2 34.2
05:15 1019 30.09 848 25.04 4.3 39.7 80 1.1 34
05:20 1019 30.09 848 25.04 4.3 39.8 80 1.1 34.1
05:25 1019 30.09 848 25.04 4.3 39.7 80 1.1 34
05:30 1019 30.09 848 25.04 4.2 39.5 80 1 33.9
05:35 1019 30.09 848 25.04 4.2 39.5 79 1 33.7
05:40 1019 30.09 848 25.04 4.3 39.7 79 1 33.8
05:45 1019 30.09 848 25.04 4.2 39.6 79 1 33.8
05:50 1019 30.09 848 25.04 4.2 39.6 79 0.9 33.7
05:55 1019 30.09 848 25.04 3.9 39.1 80 0.8 33.5
06:00 1019 30.09 848 25.04 3.7 38.6 81 0.7 33.3
06:05 1019 30.09 848 25.04 3.5 38.4 82 0.7 33.3
06:10 1019 30.09 848 25.04 3.4 38 83 0.7 33.3
06:15 1019 30.09 848 25.04 3.4 38.1 82 0.6 33.2
06:20 1019 30.09 848 25.04 3.6 38.5 80 0.5 32.9
06:25 1019 30.09 848 25.04 4 39.2 79 0.7 33.3
06:30 1019 30.09 848 25.04 4.2 39.6 79 0.8 33.5
06:35 1019 30.09 848 25.04 4.1 39.5 79 0.7 33.3
06:40 1019 30.09 848 25.04 4 39.2 78 0.6 33
06:45 1019 30.09 848 25.04 4 39.2 78 0.6 33
06:50 1019 30.09 848 25.04 3.9 38.9 79 0.6 33.1
06:55 1019 30.09 848 25.04 3.8 38.9 79 0.6 33
07:00 1019 30.09 848 25.04 4.1 39.4 78 0.6 33.2
07:05 1019 30.09 848 25.04 4.4 39.9 77 0.7 33.3
07:10 1019 30.09 848 25.04 4.5 40.1 77 0.8 33.4
07:15 1019 30.09 848 25.04 4.7 40.4 77 0.9 33.7
07:20 1019 30.09 848 25.04 4.7 40.5 76 0.9 33.5
07:25 1019 30.09 848 25.04 4.9 40.8 76 1 33.7
07:30 1019 30.09 848 25.04 5 41 75 1 33.8
07:35 1019 30.09 848 25.04 5.3 41.5 74 1 33.8
07:40 1019 30.09 848 25.04 5.5 41.9 74 1.2 34.1
07:45 1019 30.09 848 25.04 5.8 42.5 71 1 33.7
07:50 1019 30.09 848 25.04 6 42.8 72 1.4 34.5
07:55 1019 30.09 848 25.04 5.5 42 73 1.1 34
08:00 1019 30.09 848 25.04 5 40.9 76 1 33.9
08:05 1019 30.09 848 25.04 5 40.9 76 1.2 34.1
08:10 1019 30.09 848 25.04 5 40.9 76 1.1 34
08:15 1019 30.09 848 25.04 4.9 40.8 77 1.1 34
08:20 1019 30.09 848 25.04 5.2 41.3 75 1.1 33.9
08:25 1019 30.09 848 25.04 5.4 41.7 74 1.2 34.1
08:30 1019 30.09 848 25.04 5.8 42.4 72 1.2 34.2
08:35 1019 30.09 848 25.04 5.7 42.2 73 1.2 34.1
08:40 1019 30.09 848 25.04 6 42.8 71 1.2 34.1
08:45 1019 30.09 848 25.04 5.7 42.3 73 1.3 34.4
08:50 1019 30.09 848 25.04 6.2 43.2 69 1 33.9
08:55 1019 30.09 848 25.04 6.4 43.5 71 1.5 34.7
09:00 1019 30.09 848 25.04 7.4 45.4 66 1.6 34.8
09:05 1019 30.09 848 25.04 8.4 47.1 62 1.7 35
09:10 1019 30.09 848 25.04 9.2 48.6 60 1.9 35.3
09:15 1018 30.06 848 25.04 9.7 49.5 58 2 35.6
09:20 1018 30.06 848 25.04 10.1 50.1 58 2.2 35.9
09:25 1018 30.06 848 25.04 10.4 50.7 57 2.4 36.3
09:30 1018 30.06 848 25.04 10.1 50.1 58 2.3 36.2
09:35 1018 30.06 848 25.04 10.1 50.3 59 2.4 36.4
09:40 1018 30.06 848 25.04 10.3 50.5 59 2.5 36.6
09:45 1018 30.06 848 25.04 10.4 50.7 58 2.6 36.6
09:50 1018 30.06 848 25.04 10.4 50.7 58 2.5 36.5
09:55 1018 30.06 848 25.04 10.9 51.7 56 2.4 36.3
10:00 1018 30.06 848 25.04 11.2 52.2 56 2.7 36.9
10:05 1018 30.06 848 25.04 11.2 52.1 56 2.8 37.1
10:10 1018 30.06 848 25.04 10.7 51.2 60 3.2 37.8
10:15 1018 30.06 848 25.04 10.4 50.8 57 2.3 36.2
10:20 1018 30.06 848 25.04 10.1 50.1 61 2.8 37.1
10:25 1018 30.06 848 25.04 10.1 50.3 58 2.2 35.9
10:30 1018 30.06 848 25.04 11.6 52.8 55 2.9 37.2
10:35 1018 30.06 847 25.01 12.2 54 53 2.9 37.2
10:40 1018 30.06 847 25.01 11.8 53.2 53 2.6 36.8
10:45 1018 30.06 848 25.04 12.1 53.8 51 2.4 36.4
10:50 1018 30.06 848 25.04 12.5 54.5 52 2.9 37.2
10:55 1018 30.06 847 25.01 12.6 54.6 49 2.1 35.8
11:00 1018 30.06 847 25.01 13.2 55.7 50 3 37.5
11:05 1018 30.06 847 25.01 12.8 55.1 50 2.8 37.1
11:10 1018 30.06 847 25.01 12.5 54.4 53 3.1 37.6
11:15 1018 30.06 847 25.01 12.1 53.7 53 2.9 37.2
11:20 1018 30.06 847 25.01 11.8 53.2 55 3 37.4
11:25 1018 30.06 847 25.01 11.8 53.2 54 2.8 37
11:30 1018 30.06 847 25.01 11.6 52.9 55 2.9 37.3
11:35 1018 30.06 847 25.01 12.1 53.8 52 2.7 36.8
11:40 1018 30.06 847 25.01 13 55.3 48 2.4 36.4
11:45 1018 30.06 847 25.01 12.4 54.2 52 2.9 37.3
11:50 1018 30.06 847 25.01 12.8 55.1 49 2.3 36.2
11:55 1018 30.06 847 25.01 13.8 56.9 47 2.7 36.9
12:00 1018 30.06 847 25.01 13.8 56.8 50 3.6 38.5
12:05 1018 30.06 847 25.01 13.2 55.7 49 2.7 36.8
12:10 1018 30.06 847 25.01 14.4 57.9 46 3 37.4
12:15 1018 30.06 847 25.01 13.6 56.5 51 3.7 38.6
12:20 1018 30.06 847 25.01 14.1 57.3 46 2.7 36.8
12:25 1018 30.06 847 25.01 15 58.9 45 3.1 37.6
12:30 1018 30.06 847 25.01 15.2 59.3 43 2.7 36.8
12:35 1018 30.06 847 25.01 14.8 58.6 46 3.3 37.9
12:40 1018 30.06 847 25.01 14.8 58.6 46 3.4 38.2
12:45 1017 30.03 847 25.01 15 59.1 45 3.3 37.9
12:50 1017 30.03 847 25.01 15.2 59.4 43 2.9 37.3
12:55 1017 30.03 847 25.01 16.5 61.6 39 2.5 36.6
13:00 1017 30.03 847 25.01 15.7 60.2 43 3.2 37.8
13:05 1017 30.03 847 25.01 16.1 61.1 41 2.9 37.1
13:10 1017 30.03 846 24.98 16.6 61.8 39 2.8 37.1
13:15 1017 30.03 846 24.98 16 60.8 43 3.6 38.5
13:20 1017 30.03 846 24.98 16.8 62.2 40 3.2 37.8
13:25 1017 30.03 846 24.98 17.4 63.4 39 3.4 38.1
13:30 1017 30.03 846 24.98 17.1 62.7 41 3.9 39.1
13:35 1017 30.03 846 24.98 16.6 61.9 42 3.7 38.7
13:40 1017 30.03 846 24.98 16.1 61 43 3.6 38.5
13:45 1017 30.03 846 24.98 16.1 61.1 42 3.5 38.3
13:50 1017 30.03 846 24.98 15.8 60.5 43 3.2 37.8
13:55 1017 30.03 846 24.98 16 60.8 41 2.8 37.1
14:00 1017 30.03 846 24.98 16.2 61.1 41 3.1 37.6
14:05 1016 30 846 24.98 16.7 62.1 38 2.5 36.6
14:10 1016 30 846 24.98 16.9 62.5 36 2 35.5
14:15 1016 30 846 24.98 16.8 62.3 37 2.3 36.1
14:20 1016 30 845 24.95 16.9 62.5 36 2 35.7
14:25 1016 30 846 24.98 16.9 62.3 34 1.2 34.2
14:30 1016 30 846 24.98 17.3 63.2 29 -1 30.3
14:35 1016 30 845 24.95 17.2 62.9 30 -0.3 31.5
14:40 1016 30 845 24.95 17.6 63.7 28 -0.8 30.6
14:45 1016 30 845 24.95 17.5 63.5 28 -1.2 29.9
14:50 1016 30 845 24.95 17.7 63.8 28 -0.8 30.5
14:55 1016 30 845 24.95 17.6 63.6 28 -0.9 30.5
15:00 1016 30 845 24.95 17.4 63.2 29 -0.7 30.7
15:05 1016 30 845 24.95 17.5 63.4 32 0.9 33.6
15:10 1016 30 845 24.95 17.4 63.2 33 1.2 34.2
15:15 1016 30 845 24.95 17 62.5 34 1 33.8
15:20 1016 30 845 24.95 16.9 62.5 35 1.6 34.8
15:25 1016 30 845 24.95 16.8 62.3 37 2.1 35.7
15:30 1016 30 845 24.95 16.7 62 39 2.9 37.3
15:35 1016 30 845 24.95 16.2 61.1 41 3.2 37.7
15:40 1016 30 845 24.95 16 60.9 40 2.7 36.8
15:45 1016 30 845 24.95 15.7 60.2 41 2.4 36.4
15:50 1016 30 845 24.95 15.8 60.4 40 2.4 36.3
15:55 1016 30 845 24.95 15.5 60 41 2.5 36.4
16:00 1016 30 845 24.95 15.3 59.5 41 2.3 36.2
16:05 1016 30 845 24.95 15.2 59.4 42 2.5 36.5
16:10 1016 30 845 24.95 15.3 59.5 42 2.5 36.5
16:15 1016 30 845 24.95 15.3 59.6 41 2.4 36.3
16:20 1016 30 845 24.95 15.3 59.5 41 2.3 36.1
16:25 1016 30 845 24.95 15.1 59.2 43 2.6 36.7
16:30 1016 30 845 24.95 14.9 58.8 43 2.6 36.6
16:35 1016 30 845 24.95 14.8 58.6 44 2.7 36.9
16:40 1016 30 845 24.95 14.6 58.3 46 3.3 37.9
16:45 1016 30 845 24.95 14.7 58.4 47 3.6 38.5
16:50 1016 30 845 24.95 14.7 58.5 47 3.7 38.7
16:55 1016 30 845 24.95 14.6 58.2 49 4 39.1
17:00 1016 30 845 24.95 14.5 58.1 49 3.9 39.1
17:05 1016 30 845 24.95 14.6 58.2 49 4.1 39.4
17:10 1016 30 845 24.95 14.3 57.8 49 4 39.1
17:15 1015 29.97 845 24.95 14.2 57.5 50 3.9 39
17:20 1015 29.97 845 24.95 14.2 57.6 52 4.5 40.1
17:25 1015 29.97 845 24.95 14.2 57.5 52 4.7 40.4
17:30 1016 30 845 24.95 14.3 57.7 52 4.5 40.1
17:35 1016 30 845 24.95 14.2 57.5 53 4.7 40.4
17:40 1016 30 845 24.95 14.3 57.7 52 4.6 40.3
17:45 1016 30 845 24.95 14.2 57.6 51 4.2 39.6
17:50 1016 30 845 24.95 14.2 57.6 51 4.3 39.7
17:55 1016 30 845 24.95 14.3 57.7 50 4.2 39.5
18:00 1016 30 845 24.95 14.2 57.5 51 4.2 39.6
18:05 1016 30 845 24.95 14.1 57.4 51 4.2 39.5
18:10 1016 30 845 24.95 14.1 57.4 51 4.3 39.7
18:15 1016 30 845 24.95 14.1 57.4 51 4.2 39.5
18:20 1016 30 845 24.95 14.1 57.4 51 4.1 39.5
18:25 1016 30 845 24.95 14.1 57.3 51 4.3 39.7
18:30 1016 30 845 24.95 14 57.2 51 4.1 39.4
18:35 1016 30 845 24.95 14 57.2 51 4.1 39.4
18:40 1016 30 845 24.95 13.9 56.9 52 4.2 39.6
18:45 1016 30 845 24.95 13.8 56.9 51 4.1 39.3
18:50 1016 30 845 24.95 13.8 56.9 52 4.1 39.3
18:55 1016 30 845 24.95 13.8 56.8 52 4 39.3
19:00 1016 30 845 24.95 13.7 56.7 52 4.2 39.5
19:05 1016 30 845 24.95 13.7 56.6 53 4.3 39.7
19:10 1016 30 845 24.95 13.6 56.5 54 4.6 40.2
19:15 1016 30 846 24.98 13.5 56.3 54 4.5 40.1
19:20 1016 30 845 24.95 13.4 56.2 53 4.2 39.6
19:25 1016 30 845 24.95 13.4 56 50 3.3 38
19:30 1016 30 845 24.95 12.8 55.1 53 3.6 38.5
19:35 1016 30 845 24.95 12.2 53.9 55 3.3 38
19:40 1016 30 845 24.95 12.1 53.9 56 3.6 38.5
19:45 1016 30 845 24.95 11.7 53 59 4 39.1
19:50 1016 30 846 24.98 11.3 52.4 62 4.5 40
19:55 1016 30 845 24.95 11 51.7 63 4.3 39.7
20:00 1016 30 845 24.95 10.8 51.4 64 4.2 39.6
20:05 1016 30 845 24.95 10.6 51 65 4.2 39.6
20:10 1016 30 845 24.95 10.5 50.8 67 4.6 40.2
20:15 1016 30 845 24.95 10.3 50.6 67 4.5 40.2
20:20 1016 30 845 24.95 10.2 50.4 68 4.7 40.4
20:25 1016 30 845 24.95 10.1 50.2 69 4.7 40.4
20:30 1016 30 845 24.95 10 50.1 68 4.3 39.8
20:35 1016 30 846 24.98 10.1 50.2 67 4.4 39.9
20:40 1016 30 846 24.98 10.3 50.5 67 4.5 40.1
20:45 1016 30 846 24.98 10.1 50.2 69 4.7 40.4
20:50 1016 30 846 24.98 10.1 50.2 66 4.2 39.5
20:55 1016 30 846 24.98 10.3 50.5 66 4.2 39.5
21:00 1016 30 846 24.98 10.1 50.2 69 4.6 40.3
21:05 1016 30 846 24.98 9.6 49.3 71 4.7 40.4
21:10 1016 30 845 24.95 9.7 49.4 71 4.6 40.2
21:15 1016 30 845 24.95 9.6 49.3 71 4.6 40.3
21:20 1016 30 845 24.95 9.3 48.8 73 4.7 40.5
21:25 1016 30 845 24.95 9.1 48.3 74 4.6 40.3
21:30 1016 30 845 24.95 9.1 48.3 75 4.8 40.7
21:35 1016 30 845 24.95 9.3 48.7 73 4.7 40.4
21:40 1016 30 845 24.95 9.4 48.9 73 4.7 40.5
21:45 1016 30 845 24.95 9.4 48.9 72 4.7 40.4
21:50 1016 30 845 24.95 9.4 49 71 4.5 40
21:55 1016 30 845 24.95 9.5 49.2 70 4.4 40
22:00 1016 30 845 24.95 9.5 49 70 4.4 39.9
22:05 1016 30 845 24.95 9.4 49 71 4.4 40
22:10 1016 30 846 24.98 9.3 48.8 72 4.5 40.1
22:15 1016 30 846 24.98 9.3 48.8 72 4.5 40.1
22:20 1016 30 846 24.98 9.3 48.8 72 4.5 40.2
22:25 1017 30.03 846 24.98 9.4 48.9 73 4.8 40.7
22:30 1016 30 846 24.98 9.3 48.7 74 4.9 40.9
22:35 1016 30 846 24.98 9.2 48.5 75 5 41
22:40 1016 30 846 24.98 9.1 48.4 75 4.9 40.9
22:45 1016 30 846 24.98 9.1 48.4 74 4.8 40.7
22:50 1016 30 846 24.98 9.1 48.5 74 4.8 40.6
22:55 1016 30 846 24.98 9.1 48.5 73 4.6 40.3
23:00 1016 30 846 24.98 9.1 48.4 73 4.6 40.3
23:05 1016 30 846 24.98 8.9 48 74 4.6 40.3
23:10 1016 30 846 24.98 8.7 47.7 75 4.4 40
23:15 1016 30 846 24.98 8.6 47.5 74 4.2 39.6
23:20 1016 30 846 24.98 8.6 47.4 74 4.2 39.6
23:25 1016 30 846 24.98 8.7 47.6 74 4.3 39.7
23:30 1016 30 846 24.98 8.7 47.6 75 4.4 40
23:35 1016 30 846 24.98 8.6 47.5 74 4.3 39.7
23:40 1016 30 846 24.98 8.6 47.5 73 4.1 39.4
23:45 1016 30 846 24.98 8.6 47.5 75 4.4 39.9
23:50 1016 30 846 24.98 8.5 47.2 74 4.2 39.5
23:55 1016 30 846 24.98 8.4 47.1 75 4.2 39.6
24:00 1016 30 846 24.98 8.4 47.1 75 4.3 39.7